createdAt,value
2023-05-19T00:01:17.921Z,68.40
2023-05-19T00:03:59.000Z,68.60
2023-05-19T00:06:29.219Z,68.90
2023-05-19T00:09:07.675Z,68.90
2023-05-19T00:11:38.266Z,69.30
2023-05-19T00:14:07.602Z,69.30
2023-05-19T00:16:36.205Z,69.50
2023-05-19T00:19:04.280Z,69.60
2023-05-19T00:21:31.783Z,69.80
2023-05-19T00:23:58.978Z,69.90
2023-05-19T00:26:27.157Z,70.10
2023-05-19T00:28:53.989Z,70.30
2023-05-19T00:31:21.021Z,70.40
2023-05-19T00:33:47.867Z,70.50
2023-05-19T00:36:14.685Z,70.70
2023-05-19T00:38:41.450Z,70.80
2023-05-19T00:41:08.259Z,70.90
2023-05-19T00:43:34.989Z,71.00
2023-05-19T00:46:02.195Z,71.20
2023-05-19T00:48:29.128Z,71.30
2023-05-19T00:51:02.345Z,71.40
2023-05-19T00:53:29.647Z,71.60
2023-05-19T00:55:56.999Z,71.60
2023-05-19T00:58:29.100Z,71.70
2023-05-19T01:01:03.499Z,71.80
2023-05-19T01:03:32.485Z,72.00
2023-05-19T01:06:01.753Z,72.00
2023-05-19T01:08:31.640Z,72.10
2023-05-19T01:10:58.772Z,72.30
2023-05-19T01:13:26.547Z,72.50
2023-05-19T01:16:13.191Z,72.60
2023-05-19T01:18:58.825Z,72.70
2023-05-19T01:21:28.643Z,72.90
2023-05-19T01:24:33.548Z,73.00
2023-05-19T01:27:20.978Z,73.30
2023-05-19T01:30:09.385Z,73.30
2023-05-19T01:32:37.023Z,73.50
2023-05-19T01:35:05.575Z,73.40
2023-05-19T01:37:34.166Z,73.50
2023-05-19T01:40:01.620Z,73.60
2023-05-19T01:42:30.080Z,73.60
2023-05-19T01:44:57.517Z,73.70
2023-05-19T01:47:25.398Z,73.90
2023-05-19T01:49:52.191Z,74.00
2023-05-19T01:52:18.975Z,74.10
2023-05-19T01:54:45.912Z,74.20
2023-05-19T01:57:48.416Z,74.30
2023-05-19T02:00:36.638Z,74.50
2023-05-19T02:03:24.791Z,74.70
2023-05-19T02:06:03.544Z,74.70
2023-05-19T02:08:39.328Z,74.70
2023-05-19T02:11:24.674Z,74.80
2023-05-19T02:13:57.000Z,75.90
2023-05-19T02:16:29.194Z,75.10
2023-05-19T02:18:56.499Z,75.20
2023-05-19T02:21:23.304Z,75.30
2023-05-19T02:23:50.985Z,75.40
2023-05-19T02:26:17.746Z,75.50
2023-05-19T02:28:44.502Z,76.40
2023-05-19T02:31:11.282Z,75.70
2023-05-19T02:33:38.066Z,75.80
2023-05-19T02:36:05.452Z,75.90
2023-05-19T02:38:32.631Z,76.10
2023-05-19T02:40:59.389Z,76.20
2023-05-19T02:43:26.228Z,76.30
2023-05-19T02:45:53.069Z,76.40
2023-05-19T02:48:20.113Z,76.50
2023-05-19T02:50:46.896Z,76.60
2023-05-19T02:53:13.615Z,76.80
2023-05-19T02:55:40.436Z,76.90
2023-05-19T02:58:07.453Z,77.00
2023-05-19T03:00:34.381Z,77.10
2023-05-19T03:03:02.789Z,77.20
2023-05-19T03:05:32.610Z,77.30
2023-05-19T03:07:59.384Z,77.80
2023-05-19T03:10:26.217Z,77.60
2023-05-19T03:12:53.012Z,77.70
2023-05-19T03:15:20.875Z,77.80
2023-05-19T03:17:47.761Z,77.90
2023-05-19T03:20:15.856Z,78.00
2023-05-19T03:22:42.653Z,78.10
2023-05-19T03:25:10.180Z,78.20
2023-05-19T03:27:36.918Z,78.30
2023-05-19T03:30:06.323Z,78.30
2023-05-19T03:32:33.956Z,78.40
2023-05-19T03:35:00.825Z,78.60
2023-05-19T03:37:27.657Z,78.70
2023-05-19T03:39:54.482Z,78.80
2023-05-19T03:42:21.328Z,78.90
2023-05-19T03:44:48.400Z,79.00
2023-05-19T03:47:15.190Z,79.00
2023-05-19T03:49:41.964Z,79.00
2023-05-19T03:52:09.826Z,78.90
2023-05-19T03:54:38.952Z,79.00
2023-05-19T03:57:06.063Z,79.00
2023-05-19T03:59:33.158Z,79.00
2023-05-19T04:01:59.899Z,79.00
2023-05-19T04:04:27.151Z,79.10
2023-05-19T04:06:53.884Z,79.20
2023-05-19T04:09:24.058Z,79.30
2023-05-19T04:11:50.923Z,79.40
2023-05-19T04:14:17.748Z,79.50
2023-05-19T04:16:44.524Z,79.60
2023-05-19T04:19:11.435Z,79.60
2023-05-19T04:21:38.192Z,79.70
2023-05-19T04:24:06.446Z,79.80
2023-05-19T04:26:34.476Z,80.00
2023-05-19T04:29:04.377Z,80.20
2023-05-19T04:31:31.175Z,80.20
2023-05-19T04:33:57.947Z,80.40
2023-05-19T04:36:24.762Z,80.50
2023-05-19T04:38:54.828Z,80.70
2023-05-19T04:41:21.937Z,80.70
2023-05-19T04:43:50.096Z,80.90
2023-05-19T04:46:16.941Z,81.00
2023-05-19T04:48:44.037Z,81.20
2023-05-19T04:51:14.274Z,81.20
2023-05-19T04:53:41.637Z,81.30
2023-05-19T04:56:09.624Z,81.80
2023-05-19T04:58:38.740Z,81.50
2023-05-19T05:01:06.880Z,81.50
2023-05-19T05:03:34.587Z,82.10
2023-05-19T05:06:01.450Z,81.80
2023-05-19T05:08:28.311Z,81.80
2023-05-19T05:10:55.454Z,81.90
2023-05-19T05:13:23.943Z,81.80
2023-05-19T05:15:52.283Z,81.90
2023-05-19T05:18:19.536Z,82.00
2023-05-19T05:20:46.982Z,82.00
2023-05-19T05:23:16.996Z,81.90
2023-05-19T05:25:44.476Z,82.00
2023-05-19T05:28:11.422Z,82.10
2023-05-19T05:30:38.504Z,82.10
2023-05-19T05:33:06.290Z,82.10
2023-05-19T05:35:33.569Z,82.10
2023-05-19T05:38:01.680Z,82.10
2023-05-19T05:40:28.483Z,82.10
2023-05-19T05:42:55.851Z,82.00
2023-05-19T05:45:23.516Z,82.00
2023-05-19T05:47:50.903Z,81.90
2023-05-19T05:50:18.680Z,81.70
2023-05-19T05:52:47.295Z,81.60
2023-05-19T05:55:15.521Z,81.50
2023-05-19T05:57:42.266Z,81.40
2023-05-19T06:00:15.477Z,81.40
2023-05-19T06:02:46.518Z,81.30
2023-05-19T06:05:13.939Z,81.10
2023-05-19T06:07:41.490Z,81.00
2023-05-19T06:10:10.024Z,81.00
2023-05-19T06:12:40.591Z,80.80
2023-05-19T06:15:08.101Z,80.60
2023-05-19T06:17:38.115Z,80.40
2023-05-19T06:20:10.200Z,80.20
2023-05-19T06:22:37.316Z,80.10
2023-05-19T06:25:04.684Z,80.00
2023-05-19T06:27:33.315Z,79.90
2023-05-19T06:30:01.567Z,79.80
2023-05-19T06:32:29.816Z,79.60
2023-05-19T06:34:56.705Z,79.40
2023-05-19T06:37:23.913Z,80.00
2023-05-19T06:39:54.055Z,78.90
2023-05-19T06:42:25.350Z,78.80
2023-05-19T06:44:53.096Z,78.60
2023-05-19T06:47:20.127Z,78.50
2023-05-19T06:49:50.765Z,78.30
2023-05-19T06:52:17.709Z,78.10
2023-05-19T06:54:44.513Z,77.90
2023-05-19T06:57:11.268Z,77.60
2023-05-19T06:59:40.794Z,77.50
2023-05-19T07:02:08.365Z,77.10
2023-05-19T07:04:36.295Z,77.20
2023-05-19T07:07:03.242Z,76.50
2023-05-19T07:09:30.021Z,76.10
2023-05-19T07:11:56.850Z,75.80
2023-05-19T07:14:23.920Z,75.60
2023-05-19T07:16:50.858Z,75.20
2023-05-19T07:19:19.758Z,74.90
2023-05-19T07:21:47.596Z,74.50
2023-05-19T07:24:14.365Z,74.20
2023-05-19T07:26:42.603Z,73.90
2023-05-19T07:29:09.564Z,73.70
2023-05-19T07:31:36.518Z,73.50
2023-05-19T07:34:03.517Z,73.30
2023-05-19T07:36:30.431Z,72.90
2023-05-19T07:38:57.207Z,72.30
2023-05-19T07:41:24.050Z,72.00
2023-05-19T07:43:50.821Z,71.50
2023-05-19T07:46:17.660Z,71.10
2023-05-19T07:48:44.509Z,71.00
2023-05-19T07:51:12.441Z,70.60
2023-05-19T07:53:39.509Z,70.40
2023-05-19T07:56:06.574Z,70.00
2023-05-19T07:58:33.385Z,69.70
2023-05-19T08:01:00.298Z,69.50
2023-05-19T08:03:27.850Z,69.20
2023-05-19T08:05:54.926Z,69.00
2023-05-19T08:08:21.944Z,68.60
2023-05-19T08:10:48.830Z,68.20
2023-05-19T08:13:15.681Z,67.70
2023-05-19T08:15:42.854Z,67.40
2023-05-19T08:18:09.837Z,67.10
2023-05-19T08:20:36.730Z,67.00
2023-05-19T08:23:03.865Z,67.00
2023-05-19T08:25:30.754Z,66.70
2023-05-19T08:27:57.517Z,66.60
2023-05-19T08:30:24.447Z,66.60
2023-05-19T08:32:51.376Z,66.20
2023-05-19T08:35:18.250Z,66.00
2023-05-19T08:37:45.094Z,65.70
2023-05-19T08:40:17.596Z,65.30
2023-05-19T08:42:45.913Z,64.80
2023-05-19T08:45:13.125Z,64.60
2023-05-19T08:47:45.822Z,64.40
2023-05-19T08:50:17.297Z,64.00
2023-05-19T08:53:01.683Z,63.40
2023-05-19T08:55:35.788Z,62.60
2023-05-19T08:58:04.813Z,62.60
2023-05-19T09:00:32.693Z,62.30
2023-05-19T09:03:16.976Z,61.90
2023-05-19T09:05:46.717Z,61.60
2023-05-19T09:08:13.822Z,61.30
2023-05-19T09:10:40.910Z,60.40
2023-05-19T09:13:07.792Z,59.70
2023-05-19T09:15:36.873Z,59.10
2023-05-19T09:18:08.307Z,58.80
2023-05-19T09:20:40.709Z,58.70
2023-05-19T09:23:08.460Z,58.20
2023-05-19T09:25:35.556Z,59.30
2023-05-19T09:28:02.725Z,57.60
2023-05-19T09:30:29.561Z,57.10
2023-05-19T09:32:56.531Z,56.80
2023-05-19T09:35:23.799Z,56.10
2023-05-19T09:37:51.066Z,55.20
2023-05-19T09:40:17.945Z,55.30
2023-05-19T09:42:44.851Z,55.10
2023-05-19T09:45:12.033Z,55.20
2023-05-19T09:47:42.138Z,55.00
2023-05-19T09:50:10.745Z,54.50
2023-05-19T09:52:43.927Z,54.00
2023-05-19T09:55:13.033Z,52.80
2023-05-19T09:57:40.720Z,52.50
2023-05-19T10:00:15.327Z,52.60
2023-05-19T10:02:46.514Z,52.70
2023-05-19T10:05:17.458Z,52.00
2023-05-19T10:07:45.791Z,51.20
2023-05-19T10:10:14.084Z,50.90
2023-05-19T10:12:42.039Z,50.90
2023-05-19T10:15:13.309Z,50.80
2023-05-19T10:17:42.769Z,50.50
2023-05-19T10:20:11.111Z,50.60
2023-05-19T10:22:38.911Z,50.30
2023-05-19T10:25:06.956Z,50.20
2023-05-19T10:27:36.862Z,50.00
2023-05-19T10:30:16.335Z,50.00
2023-05-19T10:32:46.704Z,49.70
2023-05-19T10:35:23.068Z,50.00
2023-05-19T10:38:08.278Z,49.70
2023-05-19T10:40:43.777Z,49.10
2023-05-19T10:43:26.028Z,49.00
2023-05-19T10:45:58.052Z,48.60
2023-05-19T10:48:24.979Z,48.50
2023-05-19T10:50:56.428Z,48.20
2023-05-19T10:53:31.468Z,48.20
2023-05-19T10:56:03.738Z,47.80
2023-05-19T10:58:46.417Z,47.60
2023-05-19T11:01:14.435Z,46.80
2023-05-19T11:03:56.988Z,47.10
2023-05-19T11:06:31.996Z,47.30
2023-05-19T11:09:00.974Z,47.30
2023-05-19T11:11:46.618Z,47.20
2023-05-19T11:14:18.234Z,47.20
2023-05-19T11:16:48.201Z,47.30
2023-05-19T11:19:35.507Z,46.90
2023-05-19T11:22:13.471Z,45.90
2023-05-19T11:24:50.573Z,46.20
2023-05-19T11:27:33.746Z,46.00
2023-05-19T11:30:02.375Z,45.80
2023-05-19T11:32:31.580Z,46.10
2023-05-19T11:34:58.501Z,46.30
2023-05-19T11:37:25.619Z,46.00
2023-05-19T11:39:53.195Z,46.10
2023-05-19T11:42:20.422Z,45.40
2023-05-19T11:44:47.435Z,45.10
2023-05-19T11:47:14.917Z,45.10
2023-05-19T11:49:45.958Z,44.70
2023-05-19T11:52:13.227Z,44.50
2023-05-19T11:54:41.988Z,44.60
2023-05-19T11:57:10.681Z,44.00
2023-05-19T11:59:40.521Z,43.90
2023-05-19T12:02:13.878Z,43.80
2023-05-19T12:04:40.988Z,43.60
2023-05-19T12:07:08.282Z,43.40
2023-05-19T12:09:35.724Z,43.20
2023-05-19T12:12:03.040Z,43.10
2023-05-19T12:14:34.477Z,43.30
2023-05-19T12:17:13.702Z,44.50
2023-05-19T12:19:43.078Z,42.30
2023-05-19T12:22:10.438Z,41.70
2023-05-19T12:24:38.298Z,41.50
2023-05-19T12:27:13.729Z,41.50
2023-05-19T12:29:40.878Z,41.70
2023-05-19T12:32:09.223Z,41.80
2023-05-19T12:34:39.658Z,42.00
2023-05-19T12:37:06.646Z,41.90
2023-05-19T12:39:33.961Z,41.60
2023-05-19T12:42:04.519Z,41.80
2023-05-19T12:44:31.555Z,41.50
2023-05-19T12:46:59.587Z,41.90
2023-05-19T12:49:26.412Z,41.40
2023-05-19T12:51:54.082Z,41.00
2023-05-19T12:54:23.694Z,41.00
2023-05-19T12:56:53.938Z,41.20
2023-05-19T12:59:37.255Z,40.50
2023-05-19T13:02:05.157Z,40.70
2023-05-19T13:04:32.123Z,40.90
2023-05-19T13:06:58.941Z,40.00
2023-05-19T13:09:26.728Z,40.00
2023-05-19T13:11:54.081Z,39.50
2023-05-19T13:14:21.008Z,39.80
2023-05-19T13:16:47.971Z,40.40
2023-05-19T13:19:24.974Z,40.00
2023-05-19T13:21:52.070Z,40.20
2023-05-19T13:24:18.904Z,40.50
2023-05-19T13:26:45.980Z,40.70
2023-05-19T13:29:12.853Z,40.70
2023-05-19T13:31:39.656Z,40.10
2023-05-19T13:34:06.984Z,39.60
2023-05-19T13:36:34.963Z,39.60
2023-05-19T13:39:01.908Z,39.50
2023-05-19T13:41:31.662Z,39.40
2023-05-19T13:44:02.071Z,39.10
2023-05-19T13:46:40.710Z,38.80
2023-05-19T13:49:11.346Z,38.50
2023-05-19T13:51:38.134Z,38.20
2023-05-19T13:54:05.125Z,38.20
2023-05-19T13:56:31.984Z,38.70
2023-05-19T13:58:59.052Z,37.70
2023-05-19T14:01:25.875Z,37.90
2023-05-19T14:03:53.116Z,37.10
2023-05-19T14:06:20.429Z,37.30
2023-05-19T14:08:47.415Z,37.10
2023-05-19T14:11:21.610Z,37.70
2023-05-19T14:13:53.078Z,37.20
2023-05-19T14:16:22.099Z,37.00
2023-05-19T14:18:49.323Z,37.10
2023-05-19T14:21:16.237Z,37.20
2023-05-19T14:23:42.961Z,36.40
2023-05-19T14:26:11.787Z,36.20
2023-05-19T14:28:38.561Z,35.90
2023-05-19T14:31:06.088Z,35.50
2023-05-19T14:33:35.443Z,35.80
2023-05-19T14:36:02.734Z,35.80
2023-05-19T14:38:29.765Z,36.40
2023-05-19T14:40:56.887Z,36.20
2023-05-19T14:43:23.924Z,36.40
2023-05-19T14:45:50.871Z,36.40
2023-05-19T14:48:18.185Z,36.30
2023-05-19T14:50:48.031Z,36.00
2023-05-19T14:53:15.394Z,35.70
2023-05-19T14:55:42.807Z,36.00
2023-05-19T14:58:23.666Z,36.20
2023-05-19T15:00:54.108Z,36.20
2023-05-19T15:03:23.134Z,36.40
2023-05-19T15:05:49.954Z,36.80
2023-05-19T15:08:16.775Z,36.90
2023-05-19T15:10:43.554Z,37.00
2023-05-19T15:13:11.871Z,36.60
2023-05-19T15:15:38.674Z,37.70
2023-05-19T15:18:05.721Z,36.80
2023-05-19T15:20:32.641Z,37.00
2023-05-19T15:22:59.575Z,37.10
2023-05-19T15:25:26.357Z,37.10
2023-05-19T15:27:53.140Z,37.40
2023-05-19T15:30:20.043Z,37.40
2023-05-19T15:32:46.867Z,37.50
2023-05-19T15:35:13.698Z,37.80
2023-05-19T15:37:40.661Z,38.10
2023-05-19T15:40:08.097Z,38.30
2023-05-19T15:42:34.871Z,38.10
2023-05-19T15:45:01.657Z,38.00
2023-05-19T15:47:28.468Z,38.20
2023-05-19T15:49:55.426Z,38.20
2023-05-19T15:52:22.172Z,38.10
2023-05-19T15:54:49.016Z,37.80
2023-05-19T15:57:15.852Z,38.00
2023-05-19T15:59:42.656Z,38.10
2023-05-19T16:02:09.875Z,37.80
2023-05-19T16:04:37.721Z,38.00
2023-05-19T16:07:05.099Z,38.10
2023-05-19T16:09:31.864Z,38.30
2023-05-19T16:11:58.710Z,38.30
2023-05-19T16:14:29.400Z,38.40
2023-05-19T16:16:56.764Z,38.20
2023-05-19T16:19:23.964Z,38.00
2023-05-19T16:21:50.852Z,38.10
2023-05-19T16:24:17.817Z,38.30
2023-05-19T16:26:44.749Z,38.60
2023-05-19T16:29:12.588Z,38.60
2023-05-19T16:31:39.368Z,38.60
2023-05-19T16:34:06.200Z,38.60
2023-05-19T16:36:32.996Z,39.60
2023-05-19T16:38:59.777Z,38.40
2023-05-19T16:41:26.690Z,38.50
2023-05-19T16:43:53.428Z,38.80
2023-05-19T16:46:20.419Z,38.90
2023-05-19T16:48:47.297Z,38.90
2023-05-19T16:51:14.173Z,39.40
2023-05-19T16:53:41.203Z,39.60
2023-05-19T16:56:08.205Z,39.70
2023-05-19T16:58:35.386Z,39.60
2023-05-19T17:01:03.233Z,39.50
2023-05-19T17:03:31.872Z,39.60
2023-05-19T17:05:58.782Z,39.10
2023-05-19T17:08:25.609Z,38.70
2023-05-19T17:10:52.374Z,38.60
2023-05-19T17:13:19.106Z,39.70
2023-05-19T17:15:46.086Z,38.60
2023-05-19T17:18:13.164Z,38.70
2023-05-19T17:20:40.032Z,39.00
2023-05-19T17:23:07.010Z,39.00
2023-05-19T17:25:34.663Z,38.90
2023-05-19T17:28:01.457Z,39.10
2023-05-19T17:30:28.192Z,39.10
2023-05-19T17:32:55.558Z,39.40
2023-05-19T17:35:22.462Z,39.70
2023-05-19T17:37:49.297Z,39.90
2023-05-19T17:40:16.416Z,40.00
2023-05-19T17:42:43.401Z,40.00
2023-05-19T17:45:12.334Z,39.60
2023-05-19T17:47:39.185Z,39.40
2023-05-19T17:50:06.531Z,39.40
2023-05-19T17:52:33.927Z,39.20
2023-05-19T17:55:00.962Z,39.30
2023-05-19T17:57:31.375Z,39.10
2023-05-19T17:59:58.865Z,39.20
2023-05-19T18:02:26.485Z,39.40
2023-05-19T18:04:53.730Z,39.60
2023-05-19T18:07:24.522Z,39.80
2023-05-19T18:09:51.784Z,39.90
2023-05-19T18:12:18.629Z,40.00
2023-05-19T18:14:45.457Z,40.20
2023-05-19T18:17:12.270Z,40.40
2023-05-19T18:19:39.058Z,40.70
2023-05-19T18:22:06.252Z,40.60
2023-05-19T18:24:33.010Z,40.50
2023-05-19T18:26:59.862Z,40.70
2023-05-19T18:29:26.621Z,40.90
2023-05-19T18:31:53.503Z,41.10
2023-05-19T18:34:20.491Z,41.40
2023-05-19T18:36:47.326Z,41.50
2023-05-19T18:39:14.393Z,41.60
2023-05-19T18:41:42.661Z,41.70
2023-05-19T18:44:09.575Z,41.80
2023-05-19T18:46:36.426Z,41.80
2023-05-19T18:49:03.807Z,41.90
2023-05-19T18:51:32.978Z,42.00
2023-05-19T18:53:59.786Z,42.20
2023-05-19T18:56:27.772Z,42.40
2023-05-19T18:58:55.189Z,42.80
2023-05-19T19:01:22.058Z,43.10
2023-05-19T19:03:49.413Z,43.20
2023-05-19T19:06:23.380Z,43.40
2023-05-19T19:08:50.425Z,43.50
2023-05-19T19:11:17.367Z,43.70
2023-05-19T19:13:44.169Z,43.90
2023-05-19T19:16:12.017Z,45.00
2023-05-19T19:18:39.065Z,44.10
2023-05-19T19:21:06.104Z,44.10
2023-05-19T19:23:33.155Z,44.20
2023-05-19T19:26:00.412Z,44.40
2023-05-19T19:28:27.561Z,44.50
2023-05-19T19:30:54.472Z,44.90
2023-05-19T19:33:21.314Z,45.00
2023-05-19T19:35:48.097Z,45.20
2023-05-19T19:38:15.050Z,45.30
2023-05-19T19:40:41.932Z,45.50
2023-05-19T19:43:08.752Z,45.60
2023-05-19T19:45:39.054Z,45.80
2023-05-19T19:48:07.032Z,45.90
2023-05-19T19:50:34.738Z,46.00
2023-05-19T19:53:01.837Z,46.30
2023-05-19T19:55:30.650Z,46.40
2023-05-19T19:57:57.465Z,46.60
2023-05-19T20:00:24.318Z,46.80
2023-05-19T20:03:04.396Z,47.00
2023-05-19T20:05:31.625Z,47.10
2023-05-19T20:07:58.544Z,47.30
2023-05-19T20:10:25.488Z,47.50
2023-05-19T20:12:52.470Z,47.90
2023-05-19T20:15:19.307Z,48.30
2023-05-19T20:17:46.280Z,48.60
2023-05-19T20:20:13.440Z,48.90
2023-05-19T20:22:40.469Z,49.30
2023-05-19T20:25:07.652Z,49.60
2023-05-19T20:27:34.472Z,49.90
2023-05-19T20:30:01.212Z,50.00
2023-05-19T20:32:27.948Z,51.20
2023-05-19T20:34:54.750Z,50.60
2023-05-19T20:37:22.319Z,50.50
2023-05-19T20:39:49.181Z,50.60
2023-05-19T20:42:16.028Z,50.80
2023-05-19T20:44:43.052Z,50.80
2023-05-19T20:47:10.947Z,50.80
2023-05-19T20:49:37.718Z,50.80
2023-05-19T20:52:04.819Z,51.90
2023-05-19T20:54:31.609Z,51.10
2023-05-19T20:56:58.394Z,51.50
2023-05-19T20:59:25.361Z,51.80
2023-05-19T21:01:52.154Z,52.20
2023-05-19T21:04:19.050Z,52.90
2023-05-19T21:06:45.893Z,53.40
2023-05-19T21:09:12.819Z,54.20
2023-05-19T21:11:39.548Z,54.80
2023-05-19T21:14:08.003Z,55.80
2023-05-19T21:16:38.742Z,56.40
2023-05-19T21:19:06.750Z,56.90
2023-05-19T21:21:33.852Z,57.40
2023-05-19T21:24:00.915Z,57.90
2023-05-19T21:26:27.742Z,58.30
2023-05-19T21:28:54.486Z,58.90
2023-05-19T21:31:21.341Z,59.30
2023-05-19T21:33:48.081Z,59.80
2023-05-19T21:36:14.925Z,60.10
2023-05-19T21:38:41.695Z,60.40
2023-05-19T21:41:08.478Z,60.60
2023-05-19T21:43:35.290Z,60.80
2023-05-19T21:46:02.165Z,61.00
2023-05-19T21:48:29.006Z,62.10
2023-05-19T21:50:56.715Z,61.30
2023-05-19T21:53:24.012Z,61.60
2023-05-19T21:55:50.862Z,61.80
2023-05-19T21:58:18.292Z,62.00
2023-05-19T22:00:54.747Z,62.00
2023-05-19T22:03:21.984Z,62.00
2023-05-19T22:05:53.016Z,62.10
2023-05-19T22:08:20.976Z,62.00
2023-05-19T22:10:51.808Z,62.00
2023-05-19T22:13:19.729Z,62.10
2023-05-19T22:15:46.646Z,62.10
2023-05-19T22:18:13.581Z,62.20
2023-05-19T22:20:40.445Z,62.20
2023-05-19T22:23:07.296Z,62.10
2023-05-19T22:25:34.113Z,62.20
2023-05-19T22:28:05.607Z,62.20
2023-05-19T22:30:32.573Z,62.10
2023-05-19T22:32:59.572Z,62.00
2023-05-19T22:35:26.490Z,62.00
2023-05-19T22:37:53.282Z,61.90
2023-05-19T22:40:20.034Z,61.90
2023-05-19T22:42:46.820Z,61.80
2023-05-19T22:45:13.868Z,61.90
2023-05-19T22:47:40.739Z,61.70
2023-05-19T22:50:10.107Z,61.60
2023-05-19T22:52:37.405Z,61.60
2023-05-19T22:55:04.933Z,61.60
2023-05-19T22:57:31.947Z,61.60
2023-05-19T22:59:58.742Z,61.60
2023-05-19T23:02:26.310Z,61.60
2023-05-19T23:04:53.151Z,61.70
2023-05-19T23:07:19.992Z,62.50
2023-05-19T23:09:46.897Z,61.60
2023-05-19T23:12:13.777Z,61.70
2023-05-19T23:14:40.893Z,61.80
2023-05-19T23:17:07.693Z,61.90
2023-05-19T23:19:35.283Z,61.90
2023-05-19T23:22:02.093Z,62.00
2023-05-19T23:24:28.854Z,62.00
2023-05-19T23:26:55.681Z,62.20
2023-05-19T23:29:22.485Z,62.20
2023-05-19T23:31:49.368Z,62.30
2023-05-19T23:34:16.149Z,62.30
2023-05-19T23:36:42.925Z,62.40
2023-05-19T23:39:09.763Z,62.50
2023-05-19T23:41:36.806Z,62.60
2023-05-19T23:44:03.732Z,62.70
2023-05-19T23:46:31.000Z,62.70
2023-05-19T23:48:57.822Z,62.80
2023-05-19T23:51:24.591Z,62.80
2023-05-19T23:53:51.455Z,62.80
2023-05-19T23:56:18.216Z,63.00
2023-05-19T23:58:45.077Z,63.10
